McHenry, IL

4:32 PM CST on February 14, 2016 (GMT -0600)
settler's woods | | Change Station
CLOSE
Current Station
Personal Weather Station
Location: McHenry, IL
Elevation: 771 ft
Nearby Weather Stations

Elev 771 ft 42.35 °N, 88.24 °W | Updated 13 minutes ago

Overcast
Overcast
18.9 °F
Feels Like 12 °F
N
4.7
Wind Variable Wind from WNW

Today
High -- | Low -- °F
--% Chance of Precip.
Yesterday
High -- | Low -- °F
Precip. -- in
Pressure 30.09 in
Visibility 1.8 miles
Clouds Overcast 1400 ft
Windchill 12 °F
Dew Point 14 °F
Humidity 82%
Rainfall 0.00 in
Snow Depth Not available.
6:51 AM 5:23 PM
Waxing Crescent, 46% visible
SPECI KUGN 142220Z 14015G20KT 1 3/4SM -SN BR OVC014 M07/M09 A3009 RMK AO2 P0000 T10721094
Pressure 30.09 in
Visibility 1.8 miles
Clouds Overcast 1400 ft
Windchill 12 °F
Dew Point 14 °F
Humidity 82%
Rainfall 0.00 in
Snow Depth Not available.
6:51 AM 5:23 PM
Waxing Crescent, 46% visible
SPECI KUGN 142220Z 14015G20KT 1 3/4SM -SN BR OVC014 M07/M09 A3009 RMK AO2 P0000 T10721094

10-Day Weather Forecast

Almanac

Astronomy

Feb. 14, 2016 Rise Set
Actual Time
Civil Twilight
Nautical Twilight
Astronomical Twilight
Moon
Length of Visible Light
Length of Day
Tomorrow will be .
, % of the Moon is Illuminated

Today's Extremes

State Highs State Lows

Community

WunderPhotos

Upload Photos

1,892,899 photos uploaded!

WunderBlog® & News

Nearby

Air Quality

  Air Quality AQ Index Pollutant
Not available.

Snow Depth

Station Depth Elevation

Earthquake Activity

City Distance Mag. Time & Date
Minimum magnitude displayed is 2.5.

Coastal Water Temperatures

Place Temperature

Stations

Nearby Weather Stations

Station Location Temp. Windchill Dew Point Humidity Wind Precip. Elev Updated Type
                   

Watches & Warnings

There are currently no watches in effect.